Terminal Aerodrome Forecast
Issued by NWS Omaha/Valley, NE

Home | Current Version | Previous Version | Text Only | Print | Product List | Glossary On
Versions: 1 2 3 4 5 6 7 8 9 10 11 12 13 14 15 16 17 18 19 20 21 22 23 24 25 26 27 28
000
FTUS43 KOAX 231736
TAFOMA
TAF
KOMA 231736Z 2318/2418 14007KT P6SM OVC050
      TEMPO 2318/2322 P6SM BKN020 OVC040
     FM232200 15012KT P6SM SCT050 BKN100 PROB30 2405/2410 4SM -SHRA
      BR OVC020
     FM241000 15011KT P6SM OVC030
      TEMPO 2410/2414 5SM -RA BR OVC012=

USA.gov is the U.S. government's official web portal to all federal, state and local government web resources and services.